Terminal Aerodrome Forecast
Issued by NWS

Home | Current Version | Previous Version | Graphics & Text | Print | Product List | Glossary On
Versions: 1 2 3 4 5 6 7 8 9 10 11 12 13 14 15 16
000
FTUS43 KABR 300527
TAFPIR
TAF
KPIR 300527Z 3006/0106 VRB05KT P6SM OVC150
     FM301600 04018G26KT P6SM VCSH OVC050
     FM010100 02011KT P6SM VCSH OVC060=

USA.gov is the U.S. government's official web portal to all federal, state and local government web resources and services.